createdAt,value
2018-05-13T00:02:27.318Z,84.40
2018-05-13T00:04:55.620Z,85.90
2018-05-13T00:07:23.145Z,85.80
2018-05-13T00:09:51.415Z,87.10
2018-05-13T00:12:18.937Z,87.00
2018-05-13T00:14:46.482Z,87.30
2018-05-13T00:17:14.014Z,87.20
2018-05-13T00:19:41.524Z,86.60
2018-05-13T00:22:09.053Z,86.70
2018-05-13T00:24:36.572Z,86.30
2018-05-13T00:27:04.870Z,86.70
2018-05-13T00:29:32.411Z,86.70
2018-05-13T00:32:00.713Z,87.10
2018-05-13T00:34:28.243Z,87.10
2018-05-13T00:36:56.528Z,87.00
2018-05-13T00:39:24.108Z,87.00
2018-05-13T00:41:51.628Z,87.10
2018-05-13T00:44:19.935Z,87.60
2018-05-13T00:46:47.466Z,87.60
2018-05-13T00:49:15.000Z,88.20
2018-05-13T00:51:42.521Z,88.00
2018-05-13T00:54:21.920Z,87.10
2018-05-13T00:56:50.212Z,86.80
2018-05-13T00:59:17.740Z,86.80
2018-05-13T01:01:46.049Z,87.10
2018-05-13T01:04:13.556Z,87.10
2018-05-13T01:06:41.085Z,87.30
2018-05-13T01:09:08.613Z,87.20
2018-05-13T01:11:36.153Z,87.10
2018-05-13T01:14:04.439Z,87.00
2018-05-13T01:16:31.979Z,87.00
2018-05-13T01:19:00.282Z,86.80
2018-05-13T01:21:27.844Z,86.70
2018-05-13T01:23:55.364Z,87.30
2018-05-13T01:26:23.639Z,87.30
2018-05-13T01:28:51.935Z,87.60
2018-05-13T01:31:19.442Z,87.60
2018-05-13T01:33:46.964Z,87.40
2018-05-13T01:36:14.491Z,87.80
2018-05-13T01:38:42.771Z,88.00
2018-05-13T01:41:11.004Z,87.80
2018-05-13T01:43:38.483Z,87.80
2018-05-13T01:46:06.728Z,87.00
2018-05-13T01:48:34.183Z,87.00
2018-05-13T01:51:01.661Z,86.80
2018-05-13T01:53:29.122Z,87.00
2018-05-13T01:55:56.674Z,86.60
2018-05-13T01:58:24.176Z,86.40
2018-05-13T02:00:51.645Z,86.00
2018-05-13T02:03:19.195Z,86.60
2018-05-13T02:05:46.671Z,86.60
2018-05-13T02:08:14.119Z,85.90
2018-05-13T02:10:41.679Z,86.00
2018-05-13T02:13:09.159Z,86.30
2018-05-13T02:15:36.627Z,86.90
2018-05-13T02:18:04.106Z,87.60
2018-05-13T02:20:32.363Z,87.90
2018-05-13T02:22:59.836Z,87.90
2018-05-13T02:25:28.074Z,88.30
2018-05-13T02:27:55.542Z,88.30
2018-05-13T02:30:23.014Z,87.90
2018-05-13T02:32:51.236Z,86.70
2018-05-13T02:35:18.691Z,86.80
2018-05-13T02:37:46.186Z,86.70
2018-05-13T02:40:13.634Z,87.10
2018-05-13T02:42:41.200Z,87.90
2018-05-13T02:45:08.855Z,88.00
2018-05-13T02:47:36.323Z,87.80
2018-05-13T02:50:04.551Z,88.00
2018-05-13T02:52:32.015Z,87.30
2018-05-13T02:54:59.503Z,87.30
2018-05-13T02:57:26.965Z,87.40
2018-05-13T02:59:55.199Z,88.10
2018-05-13T03:02:22.663Z,88.10
2018-05-13T03:04:50.138Z,88.00
2018-05-13T03:07:17.608Z,87.60
2018-05-13T03:09:45.854Z,87.70
2018-05-13T03:12:13.323Z,87.70
2018-05-13T03:14:40.796Z,87.90
2018-05-13T03:17:09.012Z,87.60
2018-05-13T03:19:36.478Z,87.50
2018-05-13T03:22:03.960Z,87.50
2018-05-13T03:24:31.417Z,87.40
2018-05-13T03:26:58.875Z,87.80
2018-05-13T03:29:26.337Z,87.40
2018-05-13T03:31:53.880Z,87.60
2018-05-13T03:34:21.434Z,87.50
2018-05-13T03:36:48.912Z,87.20
2018-05-13T03:39:16.378Z,86.90
2018-05-13T03:41:44.636Z,87.20
2018-05-13T03:44:12.196Z,87.10
2018-05-13T03:46:39.688Z,87.80
2018-05-13T03:49:07.151Z,87.30
2018-05-13T03:51:34.636Z,87.20
2018-05-13T03:54:02.112Z,87.60
2018-05-13T03:56:29.568Z,88.60
2018-05-13T03:58:57.023Z,88.60
2018-05-13T04:01:25.296Z,89.10
2018-05-13T04:03:52.739Z,89.10
2018-05-13T04:06:20.220Z,88.60
2018-05-13T04:08:59.635Z,88.60
2018-05-13T04:11:38.963Z,88.60
2018-05-13T04:14:18.394Z,88.50
2018-05-13T04:16:45.865Z,88.80
2018-05-13T04:19:13.356Z,89.10
2018-05-13T04:21:41.571Z,88.50
2018-05-13T04:24:09.031Z,88.50
2018-05-13T04:26:36.504Z,87.70
2018-05-13T04:29:03.962Z,87.70
2018-05-13T04:31:31.530Z,87.50
2018-05-13T04:33:58.982Z,87.50
2018-05-13T04:36:26.444Z,87.70
2018-05-13T04:38:54.002Z,87.60
2018-05-13T04:41:21.543Z,88.00
2018-05-13T04:43:49.007Z,88.10
2018-05-13T04:46:16.482Z,88.10
2018-05-13T04:48:44.744Z,87.60
2018-05-13T04:51:12.194Z,87.60
2018-05-13T04:53:39.664Z,87.70
2018-05-13T04:56:07.923Z,87.90
2018-05-13T04:58:35.395Z,87.90
2018-05-13T05:01:03.631Z,87.80
2018-05-13T05:03:31.104Z,87.70
2018-05-13T05:05:58.566Z,87.00
2018-05-13T05:08:26.027Z,86.90
2018-05-13T05:10:53.508Z,87.40
2018-05-13T05:13:21.728Z,87.20
2018-05-13T05:15:49.204Z,87.20
2018-05-13T05:18:16.663Z,88.00
2018-05-13T05:20:44.141Z,87.80
2018-05-13T05:23:12.380Z,87.10
2018-05-13T05:25:39.853Z,87.10
2018-05-13T05:28:07.321Z,86.20
2018-05-13T05:30:35.670Z,85.60
2018-05-13T05:33:04.010Z,85.40
2018-05-13T05:35:31.567Z,85.30
2018-05-13T05:37:58.963Z,85.30
2018-05-13T05:40:26.496Z,85.00
2018-05-13T05:42:53.949Z,84.30
2018-05-13T05:45:21.416Z,83.50
2018-05-13T05:47:48.900Z,82.50
2018-05-13T05:50:16.372Z,83.00
2018-05-13T05:52:44.615Z,82.50
2018-05-13T05:55:12.076Z,82.50
2018-05-13T05:57:39.561Z,82.30
2018-05-13T06:00:07.795Z,80.60
2018-05-13T06:02:35.281Z,80.60
2018-05-13T06:05:03.516Z,82.00
2018-05-13T06:07:30.964Z,81.10
2018-05-13T06:09:58.460Z,82.50
2018-05-13T06:12:25.928Z,82.40
2018-05-13T06:14:55.779Z,83.00
2018-05-13T06:17:23.263Z,83.00
2018-05-13T06:19:50.745Z,82.40
2018-05-13T06:22:18.222Z,82.10
2018-05-13T06:24:45.754Z,82.50
2018-05-13T06:27:13.228Z,82.20
2018-05-13T06:29:41.487Z,80.90
2018-05-13T06:32:09.711Z,81.50
2018-05-13T06:34:37.176Z,81.50
2018-05-13T06:37:04.644Z,81.90
2018-05-13T06:39:32.158Z,81.60
2018-05-13T06:41:59.591Z,81.80
2018-05-13T06:44:27.824Z,83.00
2018-05-13T06:46:55.323Z,83.00
2018-05-13T06:49:23.552Z,82.80
2018-05-13T06:51:51.068Z,82.80
2018-05-13T06:54:18.560Z,81.10
2018-05-13T06:56:46.047Z,81.70
2018-05-13T06:59:13.593Z,80.60
2018-05-13T07:01:41.792Z,79.00
2018-05-13T07:04:10.018Z,78.40
2018-05-13T07:06:37.514Z,78.40
2018-05-13T07:09:05.014Z,78.10
2018-05-13T07:11:32.495Z,80.10
2018-05-13T07:13:59.947Z,79.20
2018-05-13T07:16:27.444Z,79.10
2018-05-13T07:18:55.679Z,80.30
2018-05-13T07:21:23.162Z,80.30
2018-05-13T07:23:50.645Z,80.10
2018-05-13T07:26:18.148Z,80.20
2018-05-13T07:28:45.644Z,76.60
2018-05-13T07:31:14.598Z,74.30
2018-05-13T07:33:42.091Z,74.30
2018-05-13T07:36:10.328Z,75.30
2018-05-13T07:38:37.795Z,75.10
2018-05-13T07:41:05.255Z,74.60
2018-05-13T07:43:36.177Z,75.20
2018-05-13T07:46:10.583Z,75.00
2018-05-13T07:48:38.098Z,76.20
2018-05-13T07:51:06.366Z,75.90
2018-05-13T07:53:33.836Z,75.80
2018-05-13T07:56:01.442Z,75.30
2018-05-13T07:58:28.899Z,75.30
2018-05-13T08:00:56.403Z,76.00
2018-05-13T08:03:24.643Z,76.90
2018-05-13T08:05:52.139Z,76.90
2018-05-13T08:08:19.655Z,75.50
2018-05-13T08:10:47.135Z,76.30
2018-05-13T08:13:15.375Z,75.10
2018-05-13T08:15:42.866Z,75.10
2018-05-13T08:18:11.116Z,74.60
2018-05-13T08:20:38.617Z,74.50
2018-05-13T08:23:06.171Z,75.30
2018-05-13T08:25:34.407Z,75.80
2018-05-13T08:28:01.865Z,75.70
2018-05-13T08:30:29.396Z,76.50
2018-05-13T08:32:56.910Z,74.10
2018-05-13T08:35:25.171Z,73.90
2018-05-13T08:37:53.517Z,73.90
2018-05-13T08:40:21.182Z,73.80
2018-05-13T08:42:48.651Z,74.20
2018-05-13T08:45:16.126Z,73.00
2018-05-13T08:47:44.365Z,72.10
2018-05-13T08:50:11.853Z,72.10
2018-05-13T08:52:40.119Z,71.40
2018-05-13T08:55:07.617Z,71.30
2018-05-13T08:57:35.211Z,71.20
2018-05-13T09:00:02.703Z,70.80
2018-05-13T09:02:31.954Z,71.60
2018-05-13T09:04:59.456Z,71.50
2018-05-13T09:07:27.783Z,70.90
2018-05-13T09:09:55.279Z,70.80
2018-05-13T09:12:22.789Z,70.10
2018-05-13T09:14:51.486Z,70.30
2018-05-13T09:17:18.972Z,69.30
2018-05-13T09:19:47.982Z,68.90
2018-05-13T09:22:16.236Z,68.70
2018-05-13T09:24:43.725Z,68.60
2018-05-13T09:27:11.213Z,69.40
2018-05-13T09:29:38.693Z,69.00
2018-05-13T09:32:06.196Z,69.10
2018-05-13T09:34:33.674Z,67.70
2018-05-13T09:37:01.170Z,67.80
2018-05-13T09:39:28.642Z,68.60
2018-05-13T09:41:56.919Z,67.70
2018-05-13T09:44:25.149Z,67.10
2018-05-13T09:46:52.716Z,67.00
2018-05-13T09:49:20.218Z,67.10
2018-05-13T09:51:48.456Z,67.80
2018-05-13T09:54:15.970Z,67.80
2018-05-13T09:56:43.440Z,68.20
2018-05-13T09:59:10.908Z,68.20
2018-05-13T10:01:38.383Z,68.00
2018-05-13T10:04:05.974Z,67.60
2018-05-13T10:06:33.354Z,66.60
2018-05-13T10:09:00.834Z,67.10
2018-05-13T10:11:28.339Z,67.40
2018-05-13T10:13:56.576Z,65.60
2018-05-13T10:16:24.074Z,65.50
2018-05-13T10:18:51.557Z,65.80
2018-05-13T10:21:19.105Z,65.80
2018-05-13T10:23:46.604Z,64.70
2018-05-13T10:26:14.083Z,64.70
2018-05-13T10:28:42.433Z,64.30
2018-05-13T10:31:09.914Z,64.30
2018-05-13T10:33:38.195Z,64.50
2018-05-13T10:36:06.436Z,65.20
2018-05-13T10:38:33.936Z,65.20
2018-05-13T10:41:02.254Z,64.80
2018-05-13T10:43:29.820Z,64.80
2018-05-13T10:45:57.316Z,65.00
2018-05-13T10:48:25.565Z,64.30
2018-05-13T10:50:53.078Z,64.40
2018-05-13T10:53:20.596Z,66.20
2018-05-13T10:55:48.844Z,65.90
2018-05-13T10:58:16.341Z,65.90
2018-05-13T11:00:44.571Z,65.80
2018-05-13T11:03:15.184Z,65.80
2018-05-13T11:05:42.644Z,67.30
2018-05-13T11:08:10.152Z,67.70
2018-05-13T11:10:38.400Z,66.80
2018-05-13T11:13:05.903Z,66.70
2018-05-13T11:15:33.403Z,66.60
2018-05-13T11:18:00.994Z,66.10
2018-05-13T11:20:29.232Z,67.90
2018-05-13T11:22:56.694Z,67.80
2018-05-13T11:25:24.213Z,67.00
2018-05-13T11:27:51.680Z,68.00
2018-05-13T11:30:19.170Z,67.90
2018-05-13T11:32:46.656Z,67.90
2018-05-13T11:35:14.938Z,65.70
2018-05-13T11:37:43.229Z,66.60
2018-05-13T11:40:10.704Z,66.60
2018-05-13T11:42:38.220Z,66.30
2018-05-13T11:45:06.484Z,66.00
2018-05-13T11:47:34.740Z,65.70
2018-05-13T11:50:02.227Z,65.60
2018-05-13T11:52:30.496Z,65.20
2018-05-13T11:54:58.721Z,65.20
2018-05-13T11:57:26.209Z,65.20
2018-05-13T11:59:53.696Z,66.00
2018-05-13T12:02:21.227Z,66.50
2018-05-13T12:04:48.783Z,67.30
2018-05-13T12:07:16.284Z,67.10
2018-05-13T12:09:43.790Z,66.60
2018-05-13T12:12:12.708Z,66.80
2018-05-13T12:14:40.193Z,65.40
2018-05-13T12:17:07.670Z,65.70
2018-05-13T12:19:35.179Z,64.60
2018-05-13T12:22:02.661Z,64.90
2018-05-13T12:24:30.160Z,64.50
2018-05-13T12:26:57.628Z,65.20
2018-05-13T12:29:25.920Z,65.80
2018-05-13T12:31:53.371Z,65.70
2018-05-13T12:34:21.652Z,66.30
2018-05-13T12:36:49.915Z,67.60
2018-05-13T12:39:18.156Z,67.70
2018-05-13T12:41:45.668Z,67.60
2018-05-13T12:44:13.124Z,68.10
2018-05-13T12:46:40.638Z,68.10
2018-05-13T12:49:08.097Z,68.10
2018-05-13T12:51:35.593Z,67.90
2018-05-13T12:54:03.108Z,69.00
2018-05-13T12:56:30.628Z,69.20
2018-05-13T12:58:58.079Z,68.50
2018-05-13T13:01:25.728Z,68.30
2018-05-13T13:03:53.257Z,68.50
2018-05-13T13:06:20.692Z,69.40
2018-05-13T13:08:48.195Z,69.30
2018-05-13T13:11:15.672Z,69.30
2018-05-13T13:13:43.156Z,70.30
2018-05-13T13:16:10.625Z,70.40
2018-05-13T13:18:38.880Z,70.00
2018-05-13T13:21:06.363Z,69.90
2018-05-13T13:23:34.609Z,69.10
2018-05-13T13:26:02.172Z,69.00
2018-05-13T13:28:29.704Z,69.40
2018-05-13T13:30:57.156Z,71.60
2018-05-13T13:33:24.636Z,70.00
2018-05-13T13:35:52.125Z,69.70
2018-05-13T13:38:20.368Z,69.60
2018-05-13T13:40:47.878Z,69.50
2018-05-13T13:43:15.379Z,69.30
2018-05-13T13:45:42.889Z,70.10
2018-05-13T13:48:10.371Z,70.70
2018-05-13T13:50:37.866Z,69.80
2018-05-13T13:53:05.363Z,70.20
2018-05-13T13:55:32.847Z,70.50
2018-05-13T13:58:00.345Z,70.40
2018-05-13T14:00:28.589Z,70.90
2018-05-13T14:02:56.220Z,70.10
2018-05-13T14:05:23.690Z,70.60
2018-05-13T14:07:51.185Z,70.20
2018-05-13T14:10:18.655Z,70.00
2018-05-13T14:12:46.906Z,70.70
2018-05-13T14:15:14.376Z,71.20
2018-05-13T14:17:42.664Z,70.40
2018-05-13T14:20:10.236Z,70.30
2018-05-13T14:22:37.632Z,71.00
2018-05-13T14:25:06.613Z,71.10
2018-05-13T14:27:34.102Z,70.60
2018-05-13T14:30:01.589Z,71.10
2018-05-13T14:32:29.084Z,69.60
2018-05-13T14:34:56.573Z,69.80
2018-05-13T14:37:24.087Z,70.20
2018-05-13T14:39:51.577Z,70.20
2018-05-13T14:42:19.090Z,70.50
2018-05-13T14:44:46.570Z,69.60
2018-05-13T14:47:14.065Z,69.70
2018-05-13T14:49:42.337Z,68.50
2018-05-13T14:52:10.573Z,68.40
2018-05-13T14:54:38.064Z,68.30
2018-05-13T14:57:06.322Z,68.80
2018-05-13T14:59:33.843Z,68.70
2018-05-13T15:02:01.342Z,68.90
2018-05-13T15:04:28.827Z,69.00
2018-05-13T15:06:57.063Z,69.10
2018-05-13T15:09:25.265Z,69.00
2018-05-13T15:11:52.448Z,68.00
2018-05-13T15:14:19.934Z,69.40
2018-05-13T15:16:47.427Z,68.70
2018-05-13T15:19:15.695Z,70.00
2018-05-13T15:21:43.966Z,69.90
2018-05-13T15:24:11.474Z,69.80
2018-05-13T15:26:39.006Z,70.10
2018-05-13T15:29:08.353Z,71.20
2018-05-13T15:31:36.541Z,71.90
2018-05-13T15:34:05.541Z,71.50
2018-05-13T15:36:33.024Z,71.50
2018-05-13T15:39:00.511Z,70.50
2018-05-13T15:41:28.009Z,71.60
2018-05-13T15:43:55.524Z,70.60
2018-05-13T15:46:23.042Z,70.60
2018-05-13T15:48:51.446Z,71.60
2018-05-13T15:51:18.941Z,71.60
2018-05-13T15:53:46.449Z,71.80
2018-05-13T15:56:13.944Z,72.30
2018-05-13T15:58:41.418Z,70.80
2018-05-13T16:01:10.390Z,72.90
2018-05-13T16:03:37.885Z,72.50
2018-05-13T16:06:06.128Z,74.00
2018-05-13T16:08:33.611Z,73.30
2018-05-13T16:11:01.883Z,72.80
2018-05-13T16:13:29.356Z,72.80
2018-05-13T16:15:57.596Z,72.90
2018-05-13T16:18:25.095Z,72.80
2018-05-13T16:20:52.632Z,72.70
2018-05-13T16:23:20.910Z,71.70
2018-05-13T16:25:49.164Z,71.70
2018-05-13T16:28:17.439Z,72.10
2018-05-13T16:30:44.900Z,72.00
2018-05-13T16:33:13.206Z,74.00
2018-05-13T16:35:40.678Z,74.00
2018-05-13T16:38:08.233Z,74.20
2018-05-13T16:40:35.832Z,74.20
2018-05-13T16:43:03.331Z,74.00
2018-05-13T16:45:30.825Z,74.80
2018-05-13T16:47:58.356Z,74.80
2018-05-13T16:50:25.852Z,75.20
2018-05-13T16:52:54.258Z,74.80
2018-05-13T16:55:21.818Z,74.90
2018-05-13T16:57:50.090Z,75.50
2018-05-13T17:00:18.364Z,76.10
2018-05-13T17:02:45.859Z,75.10
2018-05-13T17:05:13.374Z,75.00
2018-05-13T17:07:40.910Z,75.00
2018-05-13T17:10:08.415Z,75.10
2018-05-13T17:12:36.038Z,75.50
2018-05-13T17:15:03.544Z,75.80
2018-05-13T17:17:31.090Z,76.50
2018-05-13T17:19:59.393Z,76.90
2018-05-13T17:22:26.996Z,76.80
2018-05-13T17:24:54.517Z,77.50
2018-05-13T17:27:22.024Z,77.90
2018-05-13T17:29:50.373Z,78.30
2018-05-13T17:32:17.808Z,78.20
2018-05-13T17:34:45.294Z,78.20
2018-05-13T17:37:13.717Z,78.60
2018-05-13T17:39:41.157Z,78.60
2018-05-13T17:42:08.674Z,78.70
2018-05-13T17:44:36.295Z,78.90
2018-05-13T17:47:03.818Z,79.00
2018-05-13T17:49:32.446Z,78.60
2018-05-13T17:51:59.946Z,78.50
2018-05-13T17:54:27.443Z,78.40
2018-05-13T17:56:54.933Z,77.50
2018-05-13T17:59:22.454Z,78.00
2018-05-13T18:01:50.197Z,77.10
2018-05-13T18:04:18.479Z,77.70
2018-05-13T18:06:46.761Z,77.90
2018-05-13T18:09:14.275Z,77.90
2018-05-13T18:11:41.878Z,79.10
2018-05-13T18:14:10.119Z,78.60
2018-05-13T18:16:37.633Z,78.50
2018-05-13T18:19:05.128Z,78.60
2018-05-13T18:21:32.711Z,85.20
2018-05-13T18:24:00.172Z,78.20
2018-05-13T18:26:28.446Z,78.70
2018-05-13T18:28:55.961Z,78.80
2018-05-13T18:31:23.456Z,79.60
2018-05-13T18:33:51.748Z,78.50
2018-05-13T18:36:19.260Z,78.40
2018-05-13T18:38:46.780Z,79.00
2018-05-13T18:41:14.252Z,78.60
2018-05-13T18:43:41.772Z,79.20
2018-05-13T18:46:09.263Z,79.50
2018-05-13T18:48:36.784Z,80.00
2018-05-13T18:51:05.056Z,80.50
2018-05-13T18:53:33.316Z,80.90
2018-05-13T18:56:01.607Z,81.30
2018-05-13T18:58:29.966Z,81.50
2018-05-13T19:00:57.418Z,81.50
2018-05-13T19:03:24.927Z,81.90
2018-05-13T19:05:52.498Z,82.50
2018-05-13T19:08:19.960Z,82.30
2018-05-13T19:10:47.507Z,82.30
2018-05-13T19:13:15.004Z,82.60
2018-05-13T19:15:42.512Z,83.40
2018-05-13T19:18:09.989Z,83.30
2018-05-13T19:20:37.549Z,83.40
2018-05-13T19:23:05.187Z,84.00
2018-05-13T19:25:32.775Z,84.00
2018-05-13T19:28:00.252Z,83.90
2018-05-13T19:30:28.552Z,83.40
2018-05-13T19:32:56.037Z,83.40
2018-05-13T19:35:23.525Z,83.90
2018-05-13T19:37:51.085Z,84.50
2018-05-13T19:40:18.595Z,83.70
2018-05-13T19:42:46.097Z,84.40
2018-05-13T19:45:13.576Z,85.00
2018-05-13T19:47:41.837Z,86.40
2018-05-13T19:50:10.106Z,85.10
2018-05-13T19:52:37.661Z,85.10
2018-05-13T19:55:05.139Z,85.30
2018-05-13T19:57:33.415Z,86.60
2018-05-13T20:00:01.678Z,86.20
2018-05-13T20:02:29.946Z,86.60
2018-05-13T20:04:57.441Z,86.50
2018-05-13T20:07:24.923Z,87.00
2018-05-13T20:09:52.530Z,88.30
2018-05-13T20:12:19.968Z,87.60
2018-05-13T20:14:47.584Z,87.70
2018-05-13T20:17:15.092Z,86.10
2018-05-13T20:19:43.368Z,85.50
2018-05-13T20:22:10.889Z,85.60
2018-05-13T20:24:38.379Z,84.50
2018-05-13T20:27:05.920Z,87.70
2018-05-13T20:29:33.432Z,88.70
2018-05-13T20:32:00.965Z,89.10
2018-05-13T20:34:29.388Z,90.00
2018-05-13T20:36:56.898Z,90.00
2018-05-13T20:39:25.167Z,89.60
2018-05-13T20:41:53.402Z,89.70
2018-05-13T20:44:20.974Z,89.60
2018-05-13T20:46:48.365Z,89.30
2018-05-13T20:49:16.600Z,89.90
2018-05-13T20:51:44.069Z,89.80
2018-05-13T20:54:11.564Z,90.10
2018-05-13T20:56:39.995Z,89.90
2018-05-13T20:59:07.484Z,89.70
2018-05-13T21:01:35.724Z,90.00
2018-05-13T21:04:03.204Z,90.00
2018-05-13T21:06:31.537Z,90.00
2018-05-13T21:08:59.018Z,90.00
2018-05-13T21:11:26.494Z,89.00
2018-05-13T21:13:54.735Z,90.00
2018-05-13T21:16:22.212Z,89.90
2018-05-13T21:18:50.431Z,89.00
2018-05-13T21:21:17.916Z,89.00
2018-05-13T21:23:45.392Z,89.90
2018-05-13T21:26:12.860Z,88.20
2018-05-13T21:28:41.098Z,88.00
2018-05-13T21:31:08.592Z,87.80
2018-05-13T21:33:36.840Z,89.50
2018-05-13T21:36:04.342Z,89.40
2018-05-13T21:38:31.816Z,89.60
2018-05-13T21:40:59.320Z,89.50
2018-05-13T21:43:26.817Z,88.10
2018-05-13T21:45:54.280Z,90.10
2018-05-13T21:48:21.767Z,89.60
2018-05-13T21:50:49.238Z,89.10
2018-05-13T21:53:16.711Z,89.20
2018-05-13T21:55:44.956Z,89.20
2018-05-13T21:58:12.442Z,89.10
2018-05-13T22:00:40.715Z,88.40
2018-05-13T22:03:08.943Z,88.60
2018-05-13T22:05:36.421Z,88.50
2018-05-13T22:08:03.904Z,88.90
2018-05-13T22:10:32.140Z,89.00
2018-05-13T22:12:59.607Z,89.00
2018-05-13T22:15:27.123Z,88.10
2018-05-13T22:17:54.571Z,88.10
2018-05-13T22:20:22.083Z,88.20
2018-05-13T22:22:49.659Z,89.10
2018-05-13T22:25:17.883Z,88.90
2018-05-13T22:27:45.351Z,88.90
2018-05-13T22:30:12.819Z,89.00
2018-05-13T22:32:40.315Z,88.30
2018-05-13T22:35:07.858Z,88.60
2018-05-13T22:37:36.110Z,89.40
2018-05-13T22:40:03.568Z,89.40
2018-05-13T22:42:31.142Z,89.50
2018-05-13T22:44:58.663Z,89.70
2018-05-13T22:47:26.120Z,89.70
2018-05-13T22:49:53.600Z,89.40
2018-05-13T22:52:21.151Z,89.20
2018-05-13T22:54:48.527Z,89.30
2018-05-13T22:57:16.768Z,89.60
2018-05-13T22:59:44.234Z,89.40
2018-05-13T23:02:11.700Z,89.30
2018-05-13T23:04:39.251Z,88.70
2018-05-13T23:07:06.708Z,89.00
2018-05-13T23:09:34.231Z,89.50
2018-05-13T23:12:01.703Z,89.90
2018-05-13T23:14:29.190Z,90.00
2018-05-13T23:16:56.744Z,89.20
2018-05-13T23:19:24.201Z,89.00
2018-05-13T23:21:51.671Z,89.80
2018-05-13T23:24:19.897Z,89.50
2018-05-13T23:26:47.354Z,89.50
2018-05-13T23:29:14.956Z,90.00
2018-05-13T23:31:43.172Z,89.60
2018-05-13T23:34:10.664Z,89.60
2018-05-13T23:36:38.124Z,89.80
2018-05-13T23:39:05.606Z,90.00
2018-05-13T23:41:33.152Z,89.90
2018-05-13T23:44:00.619Z,90.00
2018-05-13T23:46:28.839Z,89.00
2018-05-13T23:48:56.413Z,89.00
2018-05-13T23:51:23.977Z,89.70
2018-05-13T23:53:51.368Z,89.20
2018-05-13T23:56:18.844Z,89.10
2018-05-13T23:58:46.309Z,89.80
